createdAt,value
2023-01-03T00:02:07.939Z,96364.53
2023-01-03T00:04:35.790Z,96365.63
2023-01-03T00:07:03.669Z,96369.44
2023-01-03T00:09:31.597Z,96367.81
2023-01-03T00:12:18.244Z,96369.97
2023-01-03T00:14:46.004Z,96371.56
2023-01-03T00:17:14.739Z,96385.66
2023-01-03T00:19:44.589Z,96375.28
2023-01-03T00:22:14.415Z,96375.31
2023-01-03T00:24:42.484Z,96381.81
2023-01-03T00:27:12.505Z,96381.00
2023-01-03T00:29:40.802Z,96382.91
2023-01-03T00:32:09.552Z,96383.97
2023-01-03T00:34:37.531Z,96388.59
2023-01-03T00:37:05.984Z,96396.69
2023-01-03T00:39:34.654Z,96403.75
2023-01-03T00:42:02.618Z,96410.03
2023-01-03T00:44:31.980Z,96414.34
2023-01-03T00:47:00.140Z,96416.53
2023-01-03T00:49:28.595Z,96420.28
2023-01-03T00:51:56.547Z,96425.41
2023-01-03T00:54:24.556Z,96429.34
2023-01-03T00:56:53.076Z,96421.47
2023-01-03T00:59:21.895Z,96424.38
2023-01-03T01:01:53.839Z,96426.50
2023-01-03T01:04:23.255Z,96427.47
2023-01-03T01:06:52.642Z,96436.09
2023-01-03T01:09:22.424Z,96434.91
2023-01-03T01:11:50.995Z,96446.13
2023-01-03T01:14:22.860Z,96451.19
2023-01-03T01:16:54.302Z,96446.47
2023-01-03T01:19:24.664Z,96451.88
2023-01-03T01:21:52.673Z,96461.66
2023-01-03T01:24:20.642Z,96463.75
2023-01-03T01:26:48.637Z,96465.31
2023-01-03T01:29:17.152Z,96471.50
2023-01-03T01:31:45.846Z,96466.31
2023-01-03T01:34:16.001Z,96477.13
2023-01-03T01:36:45.686Z,96475.16
2023-01-03T01:39:15.501Z,96478.84
2023-01-03T01:42:02.411Z,96472.28
2023-01-03T01:45:01.154Z,96487.72
2023-01-03T01:47:35.489Z,96490.88
2023-01-03T01:50:15.009Z,96500.25
2023-01-03T01:52:47.421Z,96485.31
2023-01-03T01:55:19.716Z,96484.44
2023-01-03T01:57:48.269Z,96485.19
2023-01-03T02:00:16.781Z,96498.13
2023-01-03T02:02:46.026Z,96490.75
2023-01-03T02:05:18.132Z,96500.69
2023-01-03T02:07:50.038Z,96501.84
2023-01-03T02:10:18.820Z,96499.69
2023-01-03T02:13:07.635Z,96499.03
2023-01-03T02:16:08.168Z,96499.78
2023-01-03T02:18:46.806Z,96502.50
2023-01-03T02:21:41.067Z,96506.16
2023-01-03T02:24:33.954Z,96508.31
2023-01-03T02:27:08.659Z,96504.94
2023-01-03T02:30:18.122Z,96508.22
2023-01-03T02:32:54.212Z,96512.00
2023-01-03T02:35:30.614Z,96506.34
2023-01-03T02:38:05.299Z,96509.78
2023-01-03T02:40:38.283Z,96507.56
2023-01-03T02:43:10.310Z,96505.34
2023-01-03T02:46:08.670Z,96509.63
2023-01-03T02:48:46.926Z,96509.44
2023-01-03T02:51:20.881Z,96510.59
2023-01-03T02:53:51.592Z,96506.66
2023-01-03T02:56:23.874Z,96503.44
2023-01-03T02:58:56.090Z,96517.94
2023-01-03T03:01:25.132Z,96518.44
2023-01-03T03:03:55.259Z,96519.50
2023-01-03T03:06:30.869Z,96522.88
2023-01-03T03:08:58.433Z,96514.44
2023-01-03T03:11:46.578Z,96518.66
2023-01-03T03:14:18.831Z,96527.13
2023-01-03T03:16:50.300Z,96520.31
2023-01-03T03:19:45.863Z,96519.16
2023-01-03T03:22:37.258Z,96513.34
2023-01-03T03:25:10.549Z,96520.41
2023-01-03T03:27:59.735Z,96509.19
2023-01-03T03:30:31.756Z,96504.50
2023-01-03T03:33:05.706Z,96513.56
2023-01-03T03:35:43.057Z,96518.88
2023-01-03T03:38:15.174Z,96516.19
2023-01-03T03:41:11.809Z,96519.94
2023-01-03T03:44:07.251Z,96524.28
2023-01-03T03:46:44.991Z,96522.88
2023-01-03T03:49:41.273Z,96514.44
2023-01-03T03:52:15.258Z,96507.63
2023-01-03T03:54:48.027Z,96509.50
2023-01-03T03:57:22.175Z,96511.31
2023-01-03T03:59:54.089Z,96511.84
2023-01-03T04:02:23.704Z,96515.28
2023-01-03T04:04:56.737Z,96510.47
2023-01-03T04:07:25.975Z,96517.41
2023-01-03T04:09:53.989Z,96521.63
2023-01-03T04:12:22.066Z,96516.47
2023-01-03T04:14:49.752Z,96521.53
2023-01-03T04:17:17.477Z,96525.03
2023-01-03T04:19:45.195Z,96523.50
2023-01-03T04:22:12.884Z,96511.06
2023-01-03T04:24:42.829Z,96518.59
2023-01-03T04:27:10.645Z,96515.31
2023-01-03T04:29:39.608Z,96520.56
2023-01-03T04:32:08.493Z,96521.41
2023-01-03T04:34:36.462Z,96520.81
2023-01-03T04:37:04.183Z,96521.63
2023-01-03T04:39:31.859Z,96519.75
2023-01-03T04:42:01.542Z,96528.19
2023-01-03T04:44:28.638Z,96521.63
2023-01-03T04:46:56.402Z,96531.50
2023-01-03T04:49:24.102Z,96538.53
2023-01-03T04:51:51.875Z,96533.59
2023-01-03T04:54:19.612Z,96532.91
2023-01-03T04:56:47.408Z,96532.31
2023-01-03T04:59:16.574Z,96530.78
2023-01-03T05:01:52.306Z,96529.72
2023-01-03T05:04:20.734Z,96528.31
2023-01-03T05:06:48.655Z,96536.19
2023-01-03T05:09:16.530Z,96533.25
2023-01-03T05:11:44.399Z,96533.25
2023-01-03T05:14:14.550Z,96528.44
2023-01-03T05:16:44.165Z,96536.44
2023-01-03T05:19:12.536Z,96542.66
2023-01-03T05:21:58.188Z,96539.34
2023-01-03T05:24:43.707Z,96547.47
2023-01-03T05:27:11.674Z,96547.69
2023-01-03T05:29:39.748Z,96551.22
2023-01-03T05:32:09.086Z,96554.97
2023-01-03T05:34:36.962Z,96550.75
2023-01-03T05:37:04.802Z,96565.28
2023-01-03T05:39:32.611Z,96560.47
2023-01-03T05:42:00.402Z,96566.69
2023-01-03T05:44:28.661Z,96560.59
2023-01-03T05:46:56.605Z,96569.75
2023-01-03T05:49:25.870Z,96568.34
2023-01-03T05:51:53.876Z,96570.47
2023-01-03T05:54:22.374Z,96569.88
2023-01-03T05:56:51.296Z,96563.66
2023-01-03T05:59:19.824Z,96576.91
2023-01-03T06:01:47.891Z,96572.81
2023-01-03T06:04:15.875Z,96573.28
2023-01-03T06:06:45.167Z,96575.97
2023-01-03T06:09:13.061Z,96569.88
2023-01-03T06:11:41.210Z,96570.94
2023-01-03T06:14:09.079Z,96570.22
2023-01-03T06:16:54.325Z,96577.75
2023-01-03T06:19:22.281Z,96578.44
2023-01-03T06:21:51.603Z,96584.06
2023-01-03T06:24:19.491Z,96583.75
2023-01-03T06:26:47.439Z,96582.94
2023-01-03T06:29:15.364Z,96593.72
2023-01-03T06:31:43.264Z,96591.94
2023-01-03T06:34:11.217Z,96599.78
2023-01-03T06:36:39.213Z,96601.59
2023-01-03T06:39:08.896Z,96596.28
2023-01-03T06:41:36.888Z,96587.13
2023-01-03T06:44:05.123Z,96584.34
2023-01-03T06:46:50.276Z,96591.69
2023-01-03T06:49:36.837Z,96595.13
2023-01-03T06:52:23.181Z,96595.00
2023-01-03T06:54:54.560Z,96596.88
2023-01-03T06:57:26.451Z,96599.47
2023-01-03T06:59:55.331Z,96605.56
2023-01-03T07:02:23.522Z,96608.50
2023-01-03T07:04:51.637Z,96607.09
2023-01-03T07:07:19.668Z,96607.56
2023-01-03T07:09:47.518Z,96617.41
2023-01-03T07:12:36.922Z,96612.69
2023-01-03T07:15:05.560Z,96617.28
2023-01-03T07:17:33.544Z,96621.63
2023-01-03T07:20:01.476Z,96618.09
2023-01-03T07:22:29.395Z,96624.81
2023-01-03T07:24:57.287Z,96633.94
2023-01-03T07:27:26.692Z,96635.81
2023-01-03T07:29:54.626Z,96639.56
2023-01-03T07:32:22.650Z,96640.50
2023-01-03T07:34:50.612Z,96638.53
2023-01-03T07:37:18.638Z,96638.28
2023-01-03T07:39:46.518Z,96650.47
2023-01-03T07:42:31.635Z,96646.72
2023-01-03T07:45:01.081Z,96644.38
2023-01-03T07:47:29.261Z,96653.75
2023-01-03T07:49:57.535Z,96648.84
2023-01-03T07:52:25.509Z,96643.59
2023-01-03T07:54:53.675Z,96648.16
2023-01-03T07:57:21.948Z,96651.69
2023-01-03T07:59:49.927Z,96659.19
2023-01-03T08:02:20.715Z,96658.00
2023-01-03T08:04:48.928Z,96658.97
2023-01-03T08:07:17.042Z,96659.53
2023-01-03T08:10:02.877Z,96667.38
2023-01-03T08:12:56.789Z,96671.50
2023-01-03T08:15:24.884Z,96665.41
2023-01-03T08:17:54.480Z,96676.44
2023-01-03T08:20:22.592Z,96673.50
2023-01-03T08:22:50.609Z,96681.38
2023-01-03T08:25:18.941Z,96689.09
2023-01-03T08:27:50.370Z,96692.03
2023-01-03T08:30:18.992Z,96699.91
2023-01-03T08:32:47.159Z,96694.16
2023-01-03T08:35:17.390Z,96696.28
2023-01-03T08:37:46.240Z,96699.06
2023-01-03T08:40:17.162Z,96695.56
2023-01-03T08:42:46.431Z,96701.44
2023-01-03T08:45:18.548Z,96703.19
2023-01-03T08:47:47.650Z,96709.88
2023-01-03T08:50:17.097Z,96704.00
2023-01-03T08:52:45.288Z,96705.56
2023-01-03T08:55:13.733Z,96709.53
2023-01-03T08:57:41.768Z,96715.91
2023-01-03T09:00:11.525Z,96717.88
2023-01-03T09:02:39.885Z,96720.44
2023-01-03T09:05:09.593Z,96710.59
2023-01-03T09:07:39.677Z,96716.13
2023-01-03T09:10:08.838Z,96721.75
2023-01-03T09:12:37.111Z,96725.75
2023-01-03T09:15:07.420Z,96733.25
2023-01-03T09:17:35.844Z,96733.38
2023-01-03T09:20:04.250Z,96733.03
2023-01-03T09:22:32.854Z,96735.03
2023-01-03T09:25:02.498Z,96732.19
2023-01-03T09:27:30.645Z,96736.19
2023-01-03T09:29:58.738Z,96726.78
2023-01-03T09:32:27.265Z,96726.19
2023-01-03T09:34:55.755Z,96729.03
2023-01-03T09:37:24.448Z,96726.91
2023-01-03T09:39:52.713Z,96737.72
2023-01-03T09:42:42.835Z,96737.00
2023-01-03T09:45:17.287Z,96736.44
2023-01-03T09:47:47.458Z,96739.94
2023-01-03T09:50:39.262Z,96741.94
2023-01-03T09:53:36.553Z,96731.59
2023-01-03T09:56:23.060Z,96733.69
2023-01-03T09:59:13.988Z,96735.19
2023-01-03T10:02:09.828Z,96729.91
2023-01-03T10:05:03.247Z,96721.00
2023-01-03T10:07:50.469Z,96719.25
2023-01-03T10:10:26.228Z,96718.53
2023-01-03T10:13:06.696Z,96714.19
2023-01-03T10:15:47.452Z,96721.56
2023-01-03T10:18:32.077Z,96712.44
2023-01-03T10:21:07.790Z,96718.53
2023-01-03T10:23:36.757Z,96722.06
2023-01-03T10:26:11.381Z,96718.31
2023-01-03T10:28:42.094Z,96713.75
2023-01-03T10:31:25.757Z,96716.22
2023-01-03T10:33:54.383Z,96712.31
2023-01-03T10:36:23.609Z,96706.44
2023-01-03T10:39:04.826Z,96702.22
2023-01-03T10:41:38.045Z,96697.47
2023-01-03T10:44:06.919Z,96705.34
2023-01-03T10:46:51.448Z,96700.28
2023-01-03T10:49:30.051Z,96699.63
2023-01-03T10:52:02.405Z,96680.31
2023-01-03T10:54:46.719Z,96694.78
2023-01-03T10:57:40.548Z,96697.97
2023-01-03T11:00:28.275Z,96701.94
2023-01-03T11:03:11.112Z,96690.88
2023-01-03T11:05:40.796Z,96694.16
2023-01-03T11:08:17.059Z,96690.25
2023-01-03T11:10:55.010Z,96685.44
2023-01-03T11:13:31.090Z,96688.72
2023-01-03T11:16:01.203Z,96685.00
2023-01-03T11:18:33.163Z,96676.41
2023-01-03T11:21:10.131Z,96674.44
2023-01-03T11:23:59.388Z,96669.03
2023-01-03T11:26:45.409Z,96671.63
2023-01-03T11:29:24.364Z,96671.63
2023-01-03T11:31:56.670Z,96689.28
2023-01-03T11:35:21.514Z,96679.28
2023-01-03T11:37:45.004Z,96684.03
2023-01-03T11:40:24.365Z,96687.88
2023-01-03T11:43:04.657Z,96691.16
2023-01-03T11:45:49.190Z,96687.41
2023-01-03T11:48:54.250Z,96681.34
2023-01-03T11:51:32.747Z,96674.16
2023-01-03T11:54:05.401Z,96663.06
2023-01-03T11:56:38.042Z,96662.78
2023-01-03T11:59:34.306Z,96659.31
2023-01-03T12:02:30.383Z,96651.56
2023-01-03T12:05:14.952Z,96655.34
2023-01-03T12:07:54.836Z,96645.00
2023-01-03T12:10:29.955Z,96649.31
2023-01-03T12:13:16.063Z,96651.56
2023-01-03T12:15:46.795Z,96650.19
2023-01-03T12:18:25.115Z,96649.94
2023-01-03T12:20:58.335Z,96652.56
2023-01-03T12:23:37.620Z,96652.69
2023-01-03T12:26:10.393Z,96650.69
2023-01-03T12:28:41.968Z,96648.44
2023-01-03T12:31:21.692Z,96646.69
2023-01-03T12:34:03.154Z,96647.75
2023-01-03T12:36:42.173Z,96658.47
2023-01-03T12:39:33.365Z,96652.66
2023-01-03T12:42:07.623Z,96639.66
2023-01-03T12:44:41.010Z,96639.34
2023-01-03T12:47:29.031Z,96638.34
2023-01-03T12:50:03.021Z,96634.13
2023-01-03T12:52:34.350Z,96643.88
2023-01-03T12:55:09.649Z,96638.34
2023-01-03T12:57:57.807Z,96635.63
2023-01-03T13:00:49.760Z,96631.53
2023-01-03T13:03:23.736Z,96635.94
2023-01-03T13:05:55.940Z,96628.16
2023-01-03T13:08:33.612Z,96628.41
2023-01-03T13:11:05.792Z,96627.03
2023-01-03T13:13:35.961Z,96623.63
2023-01-03T13:16:32.109Z,96627.72
2023-01-03T13:19:33.232Z,96629.56
2023-01-03T13:22:06.547Z,96634.06
2023-01-03T13:24:41.684Z,96631.56
2023-01-03T13:27:37.916Z,96631.81
2023-01-03T13:30:22.047Z,96632.22
2023-01-03T13:32:53.450Z,96635.28
2023-01-03T13:35:33.979Z,96625.53
2023-01-03T13:38:24.055Z,96625.06
2023-01-03T13:43:49.617Z,96636.63
2023-01-03T13:46:24.656Z,96634.41
2023-01-03T13:48:56.450Z,96638.69
2023-01-03T13:51:35.093Z,96647.88
2023-01-03T13:54:06.741Z,96643.38
2023-01-03T13:56:59.188Z,96642.56
2023-01-03T13:59:35.767Z,96638.00
2023-01-03T14:02:39.906Z,96639.56
2023-01-03T14:05:28.537Z,96648.75
2023-01-03T14:08:08.396Z,96649.44
2023-01-03T14:10:56.633Z,96643.34
2023-01-03T14:13:37.750Z,96645.31
2023-01-03T14:16:20.011Z,96645.63
2023-01-03T14:18:53.000Z,96653.16
2023-01-03T14:21:26.323Z,96647.88
2023-01-03T14:24:01.234Z,96656.03
2023-01-03T14:26:32.654Z,96652.25
2023-01-03T14:29:00.820Z,96660.59
2023-01-03T14:31:30.516Z,96660.97
2023-01-03T14:34:00.749Z,96653.78
2023-01-03T14:36:29.418Z,96666.38
2023-01-03T14:38:59.733Z,96659.19
2023-01-03T14:41:31.500Z,96665.91
2023-01-03T14:44:04.352Z,96663.09
2023-01-03T14:46:34.809Z,96669.00
2023-01-03T14:49:06.088Z,96673.81
2023-01-03T14:51:36.098Z,96674.53
2023-01-03T14:54:06.027Z,96677.44
2023-01-03T14:56:34.624Z,96683.91
2023-01-03T14:59:04.113Z,96680.84
2023-01-03T15:01:33.945Z,96680.84
2023-01-03T15:04:02.579Z,96689.69
2023-01-03T15:06:33.544Z,96687.47
2023-01-03T15:09:13.892Z,96700.38
2023-01-03T15:11:57.199Z,96702.03
2023-01-03T15:14:26.668Z,96704.97
2023-01-03T15:17:04.276Z,96708.50
2023-01-03T15:19:33.627Z,96711.41
2023-01-03T15:22:14.643Z,96708.13
2023-01-03T15:24:44.808Z,96709.19
2023-01-03T15:27:45.197Z,96717.75
2023-01-03T15:30:23.684Z,96715.06
2023-01-03T15:33:00.242Z,96720.13
2023-01-03T15:35:38.335Z,96718.00
2023-01-03T15:38:13.913Z,96728.78
2023-01-03T15:40:42.361Z,96722.25
2023-01-03T15:43:22.171Z,96732.22
2023-01-03T15:46:00.192Z,96730.34
2023-01-03T15:48:30.336Z,96731.63
2023-01-03T15:50:59.703Z,96736.22
2023-01-03T15:53:30.327Z,96733.97
2023-01-03T15:56:02.685Z,96732.31
2023-01-03T15:58:31.748Z,96725.50
2023-01-03T16:01:01.635Z,96733.84
2023-01-03T16:03:34.104Z,96734.31
2023-01-03T16:06:02.849Z,96736.66
2023-01-03T16:08:33.491Z,96740.88
2023-01-03T16:11:04.612Z,96735.59
2023-01-03T16:13:38.543Z,96743.00
2023-01-03T16:16:08.535Z,96741.78
2023-01-03T16:18:41.478Z,96741.78
2023-01-03T16:21:09.701Z,96732.75
2023-01-03T16:23:38.180Z,96744.59
2023-01-03T16:26:07.406Z,96735.06
2023-01-03T16:28:36.044Z,96738.25
2023-01-03T16:31:08.463Z,96736.03
2023-01-03T16:33:39.146Z,96740.00
2023-01-03T16:36:07.990Z,96744.56
2023-01-03T16:38:36.084Z,96745.84
2023-01-03T16:41:04.337Z,96751.47
2023-01-03T16:43:32.652Z,96750.66
2023-01-03T16:46:01.168Z,96746.06
2023-01-03T16:48:38.924Z,96739.63
2023-01-03T16:51:08.547Z,96743.59
2023-01-03T16:53:39.153Z,96745.47
2023-01-03T16:56:12.542Z,96740.66
2023-01-03T16:58:40.950Z,96747.19
2023-01-03T17:01:09.293Z,96745.03
2023-01-03T17:03:41.833Z,96753.19
2023-01-03T17:06:25.054Z,96748.22
2023-01-03T17:08:53.610Z,96747.13
2023-01-03T17:11:21.912Z,96742.25
2023-01-03T17:13:50.552Z,96752.97
2023-01-03T17:16:22.838Z,96749.00
2023-01-03T17:18:51.254Z,96753.94
2023-01-03T17:21:25.182Z,96759.47
2023-01-03T17:23:56.680Z,96763.41
2023-01-03T17:26:25.736Z,96757.66
2023-01-03T17:28:55.242Z,96759.13
2023-01-03T17:31:25.993Z,96759.66
2023-01-03T17:33:55.252Z,96766.13
2023-01-03T17:36:27.745Z,96783.97
2023-01-03T17:39:00.221Z,96779.88
2023-01-03T17:41:28.878Z,96779.63
2023-01-03T17:43:57.680Z,96779.69
2023-01-03T17:46:45.017Z,96787.59
2023-01-03T17:49:27.007Z,96781.44
2023-01-03T17:51:58.797Z,96789.94
2023-01-03T17:54:30.551Z,96781.91
2023-01-03T17:57:00.579Z,96776.34
2023-01-03T17:59:28.965Z,96780.38
2023-01-03T18:01:57.675Z,96776.28
2023-01-03T18:04:44.108Z,96767.25
2023-01-03T18:07:21.549Z,96778.09
2023-01-03T18:09:51.236Z,96770.72
2023-01-03T18:12:20.737Z,96770.31
2023-01-03T18:14:49.676Z,96773.63
2023-01-03T18:17:35.914Z,96773.91
2023-01-03T18:20:05.309Z,96773.53
2023-01-03T18:22:36.943Z,96768.81
2023-01-03T18:25:05.686Z,96774.19
2023-01-03T18:27:34.336Z,96783.06
2023-01-03T18:30:02.363Z,96787.63
2023-01-03T18:32:33.201Z,96784.31
2023-01-03T18:35:02.730Z,96790.88
2023-01-03T18:37:36.137Z,96787.97
2023-01-03T18:40:07.262Z,96788.94
2023-01-03T18:42:53.565Z,96784.81
2023-01-03T18:45:21.834Z,96776.94
2023-01-03T18:47:50.165Z,96776.31
2023-01-03T18:50:20.138Z,96773.63
2023-01-03T18:52:50.789Z,96782.13
2023-01-03T18:55:21.838Z,96796.59
2023-01-03T18:57:51.983Z,96796.97
2023-01-03T19:00:22.490Z,96782.50
2023-01-03T19:02:51.530Z,96787.66
2023-01-03T19:05:20.201Z,96789.06
2023-01-03T19:07:53.020Z,96789.06
2023-01-03T19:10:23.975Z,96787.16
2023-01-03T19:12:53.509Z,96777.00
2023-01-03T19:15:23.339Z,96790.00
2023-01-03T19:17:51.522Z,96789.41
2023-01-03T19:20:26.315Z,96792.06
2023-01-03T19:22:57.343Z,96784.81
2023-01-03T19:25:28.562Z,96789.56
2023-01-03T19:27:58.921Z,96786.66
2023-01-03T19:30:37.464Z,96783.28
2023-01-03T19:33:08.031Z,96767.56
2023-01-03T19:35:36.397Z,96767.75
2023-01-03T19:38:06.299Z,96767.31
2023-01-03T19:40:35.844Z,96760.69
2023-01-03T19:43:04.546Z,96758.00
2023-01-03T19:45:35.115Z,96760.06
2023-01-03T19:48:05.689Z,96751.41
2023-01-03T19:50:35.540Z,96744.97
2023-01-03T19:53:06.481Z,96747.25
2023-01-03T19:55:36.394Z,96741.66
2023-01-03T19:58:07.176Z,96746.34
2023-01-03T20:00:37.130Z,96750.69
2023-01-03T20:03:08.632Z,96742.22
2023-01-03T20:05:37.214Z,96757.53
2023-01-03T20:08:12.022Z,96755.03
2023-01-03T20:10:41.632Z,96758.28
2023-01-03T20:13:17.468Z,96760.16
2023-01-03T20:15:47.311Z,96755.41
2023-01-03T20:18:25.556Z,96751.91
2023-01-03T20:20:54.562Z,96755.63
2023-01-03T20:23:24.390Z,96764.56
2023-01-03T20:25:53.664Z,96761.13
2023-01-03T20:28:29.453Z,96758.03
2023-01-03T20:30:58.480Z,96750.47
2023-01-03T20:33:27.441Z,96754.03
2023-01-03T20:36:22.611Z,96756.56
2023-01-03T20:38:53.626Z,96756.19
2023-01-03T20:41:36.532Z,96758.25
2023-01-03T20:44:07.431Z,96752.44
2023-01-03T20:46:35.666Z,96757.16
2023-01-03T20:49:04.902Z,96755.47
2023-01-03T20:51:34.268Z,96760.81
2023-01-03T20:54:04.203Z,96759.09
2023-01-03T20:56:33.465Z,96760.97
2023-01-03T20:59:01.847Z,96765.50
2023-01-03T21:01:31.210Z,96758.03
2023-01-03T21:04:00.122Z,96761.13
2023-01-03T21:06:29.724Z,96762.97
2023-01-03T21:08:59.398Z,96763.16
2023-01-03T21:11:30.768Z,96765.38
2023-01-03T21:14:01.533Z,96773.25
2023-01-03T21:16:35.020Z,96761.03
2023-01-03T21:19:06.002Z,96763.38
2023-01-03T21:21:35.184Z,96766.88
2023-01-03T21:24:03.972Z,96763.16
2023-01-03T21:26:34.412Z,96760.47
2023-01-03T21:29:02.970Z,96766.22
2023-01-03T21:31:31.616Z,96766.50
2023-01-03T21:34:00.179Z,96761.94
2023-01-03T21:36:30.760Z,96752.22
2023-01-03T21:39:00.933Z,96760.91
2023-01-03T21:41:30.891Z,96769.19
2023-01-03T21:44:03.505Z,96762.34
2023-01-03T21:46:32.645Z,96757.50
2023-01-03T21:49:01.171Z,96755.84
2023-01-03T21:51:39.113Z,96748.44
2023-01-03T21:54:08.516Z,96757.38
2023-01-03T21:56:45.752Z,96753.69
2023-01-03T21:59:16.836Z,96761.84
2023-01-03T22:01:59.500Z,96759.81
2023-01-03T22:04:28.059Z,96761.97
2023-01-03T22:07:01.234Z,96755.84
2023-01-03T22:09:47.807Z,96756.69
2023-01-03T22:12:16.729Z,96757.78
2023-01-03T22:14:46.921Z,96763.38
2023-01-03T22:17:15.884Z,96758.44
2023-01-03T22:19:44.165Z,96762.19
2023-01-03T22:22:12.584Z,96764.06
2023-01-03T22:24:40.922Z,96764.91
2023-01-03T22:27:09.013Z,96763.69
2023-01-03T22:29:37.072Z,96766.19
2023-01-03T22:32:06.787Z,96760.25
2023-01-03T22:34:34.859Z,96753.22
2023-01-03T22:37:02.946Z,96757.97
2023-01-03T22:39:30.973Z,96757.34
2023-01-03T22:41:59.038Z,96758.19
2023-01-03T22:44:27.223Z,96752.63
2023-01-03T22:46:55.178Z,96750.75
2023-01-03T22:49:24.559Z,96746.63
2023-01-03T22:51:52.584Z,96748.88
2023-01-03T22:54:20.800Z,96751.59
2023-01-03T23:02:29.777Z,96747.50
2023-01-03T23:04:58.973Z,96745.19
2023-01-03T23:07:27.294Z,96740.13
2023-01-03T23:09:55.306Z,96726.59
2023-01-03T23:12:37.227Z,96728.78
2023-01-03T23:15:06.216Z,96729.69
2023-01-03T23:17:53.071Z,96722.44
2023-01-03T23:20:21.071Z,96727.22
2023-01-03T23:22:54.025Z,96728.03
2023-01-03T23:25:25.431Z,96714.63
2023-01-03T23:27:53.422Z,96718.16
2023-01-03T23:30:21.552Z,96709.47
2023-01-03T23:32:51.060Z,96711.22
2023-01-03T23:35:19.351Z,96712.69
2023-01-03T23:37:48.456Z,96712.16
2023-01-03T23:40:16.838Z,96711.22
2023-01-03T23:42:45.069Z,96715.59
2023-01-03T23:45:12.966Z,96724.56
2023-01-03T23:47:40.875Z,96716.53
2023-01-03T23:50:10.697Z,96714.28
2023-01-03T23:52:38.533Z,96718.66
2023-01-03T23:55:12.376Z,96710.59
2023-01-03T23:57:40.915Z,96719.50
